GOGS

Cap Skirring Airport

Cap Skirring, Senegal
METAR GOGS 250000Z VRB06KT CAVOK 21/18 Q1012
Observed Flight Rules
Apr-25 @ 00:00 UTC (38 minutes ago) Visual Flight Rules
Wind Visibility Clouds
Variable at 6 knots 10,000+ meters
  • Clear skies
Temperatures Readings
Current 21°C / 70°F
Dewpoint 18°C / 64°F
Humidity 83%
Altimeter 29.88" Hg
Pressure 1012 hPa
Elevation 13
METAR GOGS 250000Z VRB06KT CAVOK 21/18 Q1012
Observed Flight Rules
Apr-25 @ 00:00 UTC
(38 minutes ago)
VFR
Wind Visibility
Variable at 6 knots 10,000+ meters
Clouds
  • Clear skies
Temperature Dewpoint
21°C / 70°F 18°C / 64°F
Humidity Altimeter Pressure
83% 29.88" Hg 1012 hPa